Messwerte Deadhorse

Temperatur

Temperatur
°C
1575694800 20.00 20.00
1575698400 21.00 21.00 -23
1575702000 22.00 22.00 -22
1575705600 23.00 23.00 -21
1575709200 0.00 0.00 -18
1575712800 1.00 1.00 -18
1575716400 2.00 2.00 -18
1575720000 3.00 3.00
1575723600 4.00 4.00 -19
1575727200 5.00 5.00
1575730800 6.00 6.00 -18
1575734400 7.00 7.00
1575738000 8.00 8.00 -18
1575741600 9.00 9.00 -17
1575745200 10.00 10.00 -18
1575748800 11.00 11.00 -18
1575752400 12.00 12.00 -18
1575756000 13.00 13.00 -18
1575759600 14.00 14.00 -18
1575763200 15.00 15.00 -17
1575766800 16.00 16.00 -17
1575770400 17.00 17.00 -18
1575774000 18.00 18.00 -18
1575777600 19.00 19.00

Wir danken unserem Partner:

Aktuellste Messwerte

Wettercharakter
Wetter: Nebel
Temperatur
-18 °C
Feuchtigkeit
75 %
Wind
40 km/hWindrichtung: Nordost
Luftdruck
1006 hPa
Messzeit: 7. Dezember 2019, 20.00Datenquelle: METAR

Weitere Messstationen in der Nähe

Messstation Temperatur Entfernung
Kuparuk -18 °C 44 km
Deadhorse -17 °C 94 km
Nuiqsut -18 °C 96 km
Barter Island -20 °C 183 km
Anaktuvuk Pass -14 °C 263 km
Barrow -14 °C 328 km
Atqasuk -16 °C 337 km

Wind

Windrichtung Böen Mittelwind
° km/h km/h
1575694800 20.00 19.00 - 20.00
1575698400 21.00 20.00 - 21.00 260° 5
1575702000 22.00 21.00 - 22.00 280° 10
1575705600 23.00 22.00 - 23.00 290° 5
1575709200 0.00 23.00 - 0.00 60° 10
1575712800 1.00 0.00 - 1.00 140° 5
1575716400 2.00 1.00 - 2.00 100° 5
1575720000 3.00 2.00 - 3.00
1575723600 4.00 3.00 - 4.00 70° 10
1575727200 5.00 4.00 - 5.00
1575730800 6.00 5.00 - 6.00 90° 5
1575734400 7.00 6.00 - 7.00
1575738000 8.00 7.00 - 8.00 90° 10
1575741600 9.00 8.00 - 9.00 70° 30
1575745200 10.00 9.00 - 10.00 70° 30
1575748800 11.00 10.00 - 11.00 60° 30
1575752400 12.00 11.00 - 12.00 60° 30
1575756000 13.00 12.00 - 13.00 70° 30
1575759600 14.00 13.00 - 14.00 40° 30
1575763200 15.00 14.00 - 15.00 70° 35
1575766800 16.00 15.00 - 16.00 80° 40
1575770400 17.00 16.00 - 17.00 70° 40
1575774000 18.00 17.00 - 18.00 80° 40
1575777600 19.00 18.00 - 19.00

Ihre Wetterstation

Fehlt Ihre Wetterstation auf unserem Portal?

Schreiben Sie an network@meteonews.ch